Farris, Oklahoma
Current Conditions -  °F | °C
As of 1:15 PM on Saturday 20 Dec 2014 (Local Time) from KAQR Reporting Station
Overcast Overcast  
Wind Chill: 45°   Ceiling: 1500
Heat Index: 45°   Visibility: 10mi
Dew Point: 37°   Wind: 0mph
Humidity: 76%   Direction: NA
Pressure: 30.21"   Gusts: NA
Location:  34.2617°N, 95.8344°W
Report Text: KAQR 201915Z AUTO 00000KT 10SM BKN015 OVC023 07/03 A3021 RMK AO2
Loading
Personal Weather Stations






























Interactive Weather Map New forecast layout! Learn more

10-Day Weather Forecast

Advertisements
Track Severe Weather on mobile